Time;durP1;ratioP1;P1;durP2;ratioP2;P2;SDS_P1;SDS_P2;PMS_P1;PMS_P2;Temp;Humidity;BMP_temperature;BMP_pressure;BME280_temperature;BME280_humidity;BME280_pressure;Samples;Min_cycle;Max_cycle;Signal;HPM_P1;HPM_P2
2023/12/09 00:02:16;;;;;;;429.60;64.88;;;;;;;;;;4894840;29;20060;-89
2023/12/09 00:04:45;;;;;;;288.08;55.80;;;;;;;;;;4884632;29;20536;-88
2023/12/09 00:07:11;;;;;;;354.38;58.58;;;;;;;;;;4922259;29;20063;-88
2023/12/09 00:09:37;;;;;;;278.30;53.40;;;;;;;;;;4916737;29;20071;-90
2023/12/09 00:12:04;;;;;;;327.45;59.92;;;;;;;;;;4886386;29;20052;-91
2023/12/09 00:14:46;;;;;;;265.70;55.40;;;;;;;;;;4907939;29;20066;-89
2023/12/09 00:17:12;;;;;;;273.58;50.88;;;;;;;;;;4882343;29;20052;-90
2023/12/09 00:19:38;;;;;;;388.02;61.85;;;;;;;;;;4898304;29;20052;-89
2023/12/09 00:22:05;;;;;;;297.48;55.05;;;;;;;;;;4882781;29;20083;-90
2023/12/09 00:24:31;;;;;;;253.30;51.95;;;;;;;;;;4896838;29;20043;-89
2023/12/09 00:26:57;;;;;;;268.95;52.97;;;;;;;;;;4912723;29;20059;-89
2023/12/09 00:29:23;;;;;;;295.98;54.88;;;;;;;;;;4894544;29;20040;-89
2023/12/09 00:31:49;;;;;;;307.77;57.83;;;;;;;;;;4905650;29;20116;-91
2023/12/09 00:34:15;;;;;;;324.27;56.75;;;;;;;;;;4897453;29;20513;-91
2023/12/09 00:36:41;;;;;;;276.17;53.83;;;;;;;;;;4889447;29;20048;-92
2023/12/09 00:39:08;;;;;;;268.58;52.75;;;;;;;;;;4896425;29;20051;-90
2023/12/09 00:41:34;;;;;;;311.63;56.97;;;;;;;;;;4891496;29;20048;-89
2023/12/09 00:44:03;;;;;;;337.08;57.50;;;;;;;;;;4889176;29;20541;-90
2023/12/09 00:46:29;;;;;;;320.52;56.65;;;;;;;;;;4895537;29;20052;-89
2023/12/09 00:48:55;;;;;;;254.68;48.85;;;;;;;;;;4886774;29;20048;-90
2023/12/09 00:51:21;;;;;;;286.23;54.60;;;;;;;;;;4885446;29;20051;-90
2023/12/09 00:53:47;;;;;;;296.73;54.08;;;;;;;;;;4892917;29;20609;-92
2023/12/09 00:56:14;;;;;;;269.33;52.33;;;;;;;;;;4919383;29;20048;-89
2023/12/09 00:58:41;;;;;;;267.42;54.60;;;;;;;;;;4907558;29;20530;-89
2023/12/09 01:01:10;;;;;;;322.15;59.95;;;;;;;;;;4902354;29;20104;-90
2023/12/09 01:03:36;;;;;;;214.30;49.55;;;;;;;;;;4899007;29;20087;-89
2023/12/09 01:06:02;;;;;;;252.20;50.88;;;;;;;;;;4906309;29;20055;-89
2023/12/09 01:08:29;;;;;;;326.30;56.13;;;;;;;;;;4918285;29;20110;-88
2023/12/09 01:10:55;;;;;;;268.20;50.47;;;;;;;;;;4909001;29;20453;-91
2023/12/09 01:13:21;;;;;;;209.23;48.78;;;;;;;;;;4922617;29;20032;-91
2023/12/09 01:15:47;;;;;;;226.73;50.88;;;;;;;;;;4912312;29;20055;-90
2023/12/09 01:18:13;;;;;;;210.95;48.85;;;;;;;;;;4905949;29;20111;-90
2023/12/09 01:20:39;;;;;;;267.27;52.58;;;;;;;;;;4916937;29;20138;-89
2023/12/09 01:23:07;;;;;;;324.55;56.15;;;;;;;;;;4903873;29;20047;-88
2023/12/09 01:25:33;;;;;;;304.38;57.67;;;;;;;;;;4887481;29;20116;-90
2023/12/09 01:28:00;;;;;;;250.00;50.17;;;;;;;;;;4904520;29;20056;-91
2023/12/09 01:30:26;;;;;;;246.55;51.47;;;;;;;;;;4911331;29;20134;-88
2023/12/09 01:32:52;;;;;;;267.35;53.60;;;;;;;;;;4907661;29;20067;-89
2023/12/09 01:35:18;;;;;;;244.45;52.50;;;;;;;;;;4889103;29;20048;-91
2023/12/09 01:37:44;;;;;;;254.80;54.22;;;;;;;;;;4894670;29;20044;-89
2023/12/09 01:40:14;;;;;;;274.75;53.45;;;6.80;99.90;;;;;;4905772;29;20114;-89
2023/12/09 01:42:42;;;;;;;270.67;52.72;;;;;;;;;;4908046;29;20055;-90
2023/12/09 01:45:08;;;;;;;212.40;52.00;;;;;;;;;;4901252;29;20520;-91
2023/12/09 01:47:37;;;;;;;237.07;53.60;;;;;;;;;;4893038;29;20575;-91
2023/12/09 01:50:04;;;;;;;192.65;46.45;;;6.80;99.90;;;;;;4909620;29;20046;-89
2023/12/09 01:52:38;;;;;;;275.27;54.88;;;;;;;;;;4911222;29;20044;-89
2023/12/09 01:55:05;;;;;;;282.25;51.50;;;;;;;;;;4895989;29;20028;-91
2023/12/09 01:57:31;;;;;;;272.25;56.45;;;;;;;;;;4898950;29;20042;-90
2023/12/09 01:59:57;;;;;;;225.32;49.53;;;;;;;;;;4904325;29;20055;-90
2023/12/09 02:02:23;;;;;;;237.48;52.45;;;;;;;;;;4882276;29;20472;-90
2023/12/09 02:04:51;;;;;;;234.95;51.83;;;;;;;;;;4881471;29;20044;-92
2023/12/09 02:07:18;;;;;;;207.55;47.13;;;;;;;;;;4901737;29;20112;-88
2023/12/09 02:09:45;;;;;;;189.25;46.47;;;;;;;;;;4904867;29;20051;-90
2023/12/09 02:12:43;;;;;;;258.08;50.15;;;;;;;;;;4899803;29;20135;-90
2023/12/09 02:15:18;;;;;;;264.60;51.10;;;;;;;;;;4862606;29;20048;-90
2023/12/09 02:17:50;;;;;;;207.38;45.92;;;;;;;;;;4889550;29;20130;-89
2023/12/09 02:20:16;;;;;;;;;;;;;;;;;;4915898;29;20055;-90
2023/12/09 02:22:42;;;;;;;211.02;46.75;;;;;;;;;;4886813;29;20002;-86
2023/12/09 02:25:27;;;;;;;203.07;46.20;;;;;;;;;;4902775;29;20051;-90
2023/12/09 02:28:09;;;;;;;247.63;50.67;;;;;;;;;;4891844;29;20052;-90
2023/12/09 02:30:39;;;;;;;164.20;43.47;;;;;;;;;;4900250;29;20056;-90
2023/12/09 02:33:08;;;;;;;199.43;47.15;;;;;;;;;;4893418;29;20127;-90
2023/12/09 02:35:36;;;;;;;190.95;45.53;;;;;;;;;;4895712;29;20406;-88
2023/12/09 02:38:03;;;;;;;242.88;51.80;;;;;;;;;;4892624;29;20052;-88
2023/12/09 02:40:32;;;;;;;164.55;42.17;;;;;;;;;;4910475;29;20048;-90
2023/12/09 02:42:58;;;;;;;173.60;45.80;;;;;;;;;;4898952;29;20075;-89
2023/12/09 02:45:24;;;;;;;204.80;45.72;;;;;;;;;;4892401;29;20464;-90
2023/12/09 02:47:50;;;;;;;207.15;45.60;;;;;;;;;;4889890;29;20163;-91
2023/12/09 02:50:16;;;;;;;196.55;46.83;;;;;;;;;;4891285;29;20248;-89
2023/12/09 02:52:43;;;;;;;190.52;45.65;;;;;;;;;;4889293;29;20048;-89
2023/12/09 02:55:10;;;;;;;184.98;43.47;;;;;;;;;;4893779;29;20051;-90
2023/12/09 02:57:36;;;;;;;191.50;45.00;;;;;;;;;;4890360;29;20485;-90
2023/12/09 03:00:03;;;;;;;148.27;41.30;;;;;;;;;;4896289;29;20056;-92
2023/12/09 03:02:29;;;;;;;191.27;47.90;;;;;;;;;;4890337;29;20427;-90
2023/12/09 03:04:58;;;;;;;242.63;50.25;;;;;;;;;;4902551;29;20051;-89
2023/12/09 03:07:24;;;;;;;191.52;46.72;;;;;;;;;;4903000;29;20048;-89
2023/12/09 03:09:50;;;;;;;185.60;45.55;;;;;;;;;;4891982;29;20083;-88
2023/12/09 03:12:16;;;;;;;210.48;45.88;;;;;;;;;;4884180;29;20044;-90
2023/12/09 03:14:43;;;;;;;176.73;45.88;;;;;;;;;;4896062;29;20044;-89
2023/12/09 03:17:12;;;;;;;203.50;44.35;;;;;;;;;;4905065;29;20051;-90
2023/12/09 03:19:39;;;;;;;144.73;40.33;;;;;;;;;;4919403;29;20048;-90
2023/12/09 03:22:05;;;;;;;149.10;41.88;;;;;;;;;;4910162;29;20053;-90
2023/12/09 03:24:31;;;;;;;150.80;41.70;;;;;;;;;;4901477;29;20115;-90
2023/12/09 03:26:58;;;;;;;182.77;43.95;;;;;;;;;;4911286;29;20055;-89
2023/12/09 03:29:24;;;;;;;150.57;39.53;;;;;;;;;;4904346;29;20044;-88
2023/12/09 03:31:50;;;;;;;148.65;43.83;;;;;;;;;;4895001;29;20144;-88
2023/12/09 03:34:16;;;;;;;168.55;42.95;;;;;;;;;;4887991;29;20052;-90
2023/12/09 03:36:42;;;;;;;134.65;39.38;;;;;;;;;;4883666;29;20067;-89
2023/12/09 03:39:09;;;;;;;175.52;42.95;;;;;;;;;;4891032;29;20067;-88
2023/12/09 03:41:35;;;;;;;195.98;42.53;;;;;;;;;;4895029;29;20356;-90
2023/12/09 03:44:03;;;;;;;169.43;42.33;;;;;;;;;;4898934;29;20043;-90
2023/12/09 03:46:29;;;;;;;142.55;43.38;;;;;;;;;;4897612;29;20052;-88
2023/12/09 03:48:55;;;;;;;195.50;43.10;;;;;;;;;;4892415;29;20052;-90
2023/12/09 03:51:21;;;;;;;146.93;37.40;;;;;;;;;;4897270;29;20143;-88
2023/12/09 03:53:48;;;;;;;142.13;38.05;;;;;;;;;;4920210;29;20055;-90
2023/12/09 03:56:20;;;;;;;119.57;34.70;;;;;;;;;;4912276;29;20510;-86
2023/12/09 03:58:46;;;;;;;142.35;36.42;;;;;;;;;;4889010;29;20056;-86
2023/12/09 04:01:12;;;;;;;120.45;34.50;;;;;;;;;;4899710;29;20065;-88
2023/12/09 04:03:38;;;;;;;144.70;34.08;;;;;;;;;;4892214;29;20081;-90
2023/12/09 04:06:05;;;;;;;142.10;36.35;;;;;;;;;;4894385;29;20052;-88
2023/12/09 04:08:31;;;;;;;139.73;36.20;;;;;;;;;;4906241;29;20397;-89
2023/12/09 04:10:57;;;;;;;134.48;35.25;;;;;;;;;;4909743;29;20055;-87
2023/12/09 04:13:24;;;;;;;103.35;33.03;;;;;;;;;;4890702;29;20142;-88
2023/12/09 04:15:50;;;;;;;113.10;33.10;;;;;;;;;;4891246;29;20063;-88
2023/12/09 04:18:17;;;;;;;126.82;34.47;;;;;;;;;;4882894;29;20055;-88
2023/12/09 04:20:43;;;;;;;128.90;37.30;;;;;;;;;;4888598;29;20131;-87
2023/12/09 04:23:09;;;;;;;142.20;33.92;;;;;;;;;;4881693;29;20064;-86
2023/12/09 04:25:35;;;;;;;120.80;33.40;;;;;;;;;;4908472;29;20071;-90
2023/12/09 04:28:02;;;;;;;111.18;34.95;;;;;;;;;;4892023;29;20137;-89
2023/12/09 04:30:28;;;;;;;111.90;32.97;;;;;;;;;;4895056;29;20056;-88
2023/12/09 04:32:54;;;;;;;122.32;32.72;;;;;;;;;;4899123;29;20087;-86
2023/12/09 04:35:21;;;;;;;106.30;31.05;;;;;;;;;;4891001;29;20580;-88
2023/12/09 04:37:47;;;;;;;90.55;29.85;;;;;;;;;;4899142;29;20056;-89
2023/12/09 04:40:13;;;;;;;156.32;35.33;;;;;;;;;;4896783;29;20405;-88
2023/12/09 04:42:39;;;;;;;122.88;32.25;;;;;;;;;;4890929;29;20805;-87
2023/12/09 04:45:06;;;;;;;108.38;32.15;;;;;;;;;;4885207;29;20082;-89
2023/12/09 04:47:36;;;;;;;106.13;30.85;;;;;;;;;;4896830;29;20095;-89
2023/12/09 04:50:04;;;;;;;114.85;30.40;;;;;;;;;;4891863;29;20437;-86
2023/12/09 04:52:30;;;;;;;100.57;29.85;;;;;;;;;;4891805;29;20505;-87
2023/12/09 04:54:56;;;;;;;101.93;31.20;;;;;;;;;;4895713;29;20058;-86
2023/12/09 04:57:23;;;;;;;132.77;32.40;;;;;;;;;;4895059;29;20086;-87
2023/12/09 04:59:49;;;;;;;124.75;32.40;;;;;;;;;;4879659;29;20135;-88
2023/12/09 05:02:15;;;;;;;133.35;33.22;;;;;;;;;;4883700;29;20409;-88
2023/12/09 05:04:42;;;;;;;115.55;29.80;;;;;;;;;;4896120;29;20144;-88
2023/12/09 05:07:12;;;;;;;125.65;31.58;;;;;;;;;;4891747;29;20044;-90
2023/12/09 05:09:38;;;;;;;126.30;32.33;;;;;;;;;;4897158;29;20083;-90
2023/12/09 05:12:04;;;;;;;116.43;32.65;;;;;;;;;;4879178;29;20052;-88
2023/12/09 05:14:30;;;;;;;103.40;28.67;;;;;;;;;;4906276;29;20667;-88
2023/12/09 05:16:56;;;;;;;122.57;30.25;;;;;;;;;;4890058;29;20059;-89
2023/12/09 05:19:23;;;;;;;97.32;28.95;;;;;;;;;;4907038;29;20056;-88
2023/12/09 05:21:49;;;;;;;124.53;32.63;;;;;;;;;;4887817;29;20506;-86
2023/12/09 05:24:18;;;;;;;97.70;29.88;;;;;;;;;;4897548;29;20060;-91
2023/12/09 05:26:44;;;;;;;115.00;30.13;;;;;;;;;;4893089;29;20052;-89
2023/12/09 05:29:10;;;;;;;124.50;31.27;;;;;;;;;;4901811;29;20048;-89
2023/12/09 05:31:37;;;;;;;102.68;30.40;;;;;;;;;;4896452;29;20059;-88
2023/12/09 05:34:03;;;;;;;94.10;30.98;;;;;;;;;;4906431;29;20048;-88
2023/12/09 05:36:31;;;;;;;123.18;31.40;;;;;;;;;;4907499;29;20063;-89
2023/12/09 05:38:57;;;;;;;107.50;30.63;;;;;;;;;;4917196;29;20135;-88
2023/12/09 05:41:23;;;;;;;90.57;28.65;;;;;;;;;;4899444;29;20075;-89
2023/12/09 05:43:58;;;;;;;99.38;28.15;;;;;;;;;;4889834;29;20075;-90
2023/12/09 05:46:27;;;;;;;101.43;29.63;;;;;;;;;;4885871;29;20139;-88
2023/12/09 05:48:54;;;;;;;106.07;29.83;;;;;;;;;;4885773;29;20087;-88
2023/12/09 05:51:20;;;;;;;124.57;32.03;;;;;;;;;;4904766;29;20063;-89
2023/12/09 05:53:46;;;;;;;116.15;29.15;;;;;;;;;;4893614;29;20055;-87
2023/12/09 05:56:12;;;;;;;112.05;32.33;;;;;;;;;;4896799;29;20533;-89
2023/12/09 05:58:39;;;;;;;98.80;32.92;;;;;;;;;;4885351;29;20059;-87
2023/12/09 06:01:06;;;;;;;114.03;29.35;;;;;;;;;;4897496;29;20540;-87
2023/12/09 06:03:32;;;;;;;128.90;36.35;;;;;;;;;;4883156;29;20048;-91
2023/12/09 06:05:58;;;;;;;126.30;33.45;;;;;;;;;;4890564;29;20062;-90
2023/12/09 06:08:24;;;;;;;117.47;30.35;;;;;;;;;;4889730;29;20044;-89
2023/12/09 06:10:51;;;;;;;134.68;32.30;;;;;;;;;;4889238;29;20071;-91
2023/12/09 06:13:17;;;;;;;135.90;31.20;;;;;;;;;;4889712;29;20090;-87
2023/12/09 06:15:46;;;;;;;132.63;32.72;;;;;;;;;;4896031;29;20044;-88
2023/12/09 06:18:16;;;;;;;120.38;30.33;;;;;;;;;;4896017;29;20054;-88
2023/12/09 06:20:42;;;;;;;109.22;27.30;;;;;;;;;;4891047;29;20044;-89
2023/12/09 06:23:08;;;;;;;104.57;28.42;;;;;;;;;;4898714;29;20048;-87
2023/12/09 06:25:34;;;;;;;74.93;24.88;;;;;;;;;;4890481;29;20067;-87
2023/12/09 06:28:00;;;;;;;124.05;29.40;;;;;;;;;;4895941;29;20466;-89
2023/12/09 06:30:26;;;;;;;94.30;27.95;;;;;;;;;;4891790;29;20063;-88
2023/12/09 06:32:56;;;;;;;92.10;26.95;;;;;;;;;;4895225;29;20138;-88
2023/12/09 06:35:22;;;;;;;89.05;26.85;;;;;;;;;;4890879;29;20438;-87
2023/12/09 06:37:49;;;;;;;109.60;29.88;;;;;;;;;;4889311;29;20115;-89
2023/12/09 06:40:15;;;;;;;144.95;32.75;;;;;;;;;;4908738;29;20055;-88
2023/12/09 06:42:41;;;;;;;99.75;30.02;;;;;;;;;;4886493;29;20139;-88
2023/12/09 06:45:07;;;;;;;103.03;26.52;;;;;;;;;;4892483;29;20055;-87
2023/12/09 06:47:33;;;;;;;107.43;27.48;;;;;;;;;;4882148;29;20140;-89
2023/12/09 06:49:59;;;;;;;118.88;28.33;;;;;;;;;;4881598;29;20051;-89
2023/12/09 06:52:25;;;;;;;86.10;25.25;;;;;;;;;;4893465;29;20051;-89
2023/12/09 06:54:52;;;;;;;110.60;27.65;;;;;;;;;;4894020;29;20102;-88
2023/12/09 06:57:18;;;;;;;104.28;28.05;;;;;;;;;;4889775;29;20055;-88
2023/12/09 06:59:44;;;;;;;111.78;27.90;;;;;;;;;;4885071;29;20066;-90
2023/12/09 07:02:16;;;;;;;126.55;28.42;;;;;;;;;;4897258;29;20048;-89
2023/12/09 07:04:42;;;;;;;;;;;;;;;;;;4885334;29;20051;-89
2023/12/09 07:07:09;;;;;;;86.88;24.45;;;;;;;;;;4878702;29;19927;-88
2023/12/09 07:09:35;;;;;;;107.70;26.38;;;;;;;;;;4889027;29;20048;-88
2023/12/09 07:12:01;;;;;;;102.05;27.67;;;;;;;;;;4876988;29;20059;-90
2023/12/09 07:14:27;;;;;;;118.80;29.00;;;;;;;;;;4891101;29;20082;-90
2023/12/09 07:16:56;;;;;;;95.43;26.52;;;;;;;;;;4886767;29;20136;-88
2023/12/09 07:19:22;;;;;;;93.70;24.15;;;;;;;;;;4885791;29;20055;-88
2023/12/09 07:21:48;;;;;;;75.35;24.63;;;;;;;;;;4892692;29;20429;-89
2023/12/09 07:24:21;;;;;;;126.05;28.23;;;;;;;;;;4896501;29;20055;-93
2023/12/09 07:26:46;;;;;;;;;;;6.60;99.90;;;;;;4888952;29;20498;-90
2023/12/09 07:29:13;;;;;;;96.40;24.85;;;;;;;;;;4881190;29;19930;-89
2023/12/09 07:31:39;;;;;;;85.78;25.45;;;;;;;;;;4891223;29;20043;-85
2023/12/09 07:34:06;;;;;;;113.72;25.20;;;;;;;;;;4886754;29;20767;-91
2023/12/09 07:36:32;;;;;;;88.63;24.35;;;;;;;;;;4884110;29;20055;-87
2023/12/09 07:38:58;;;;;;;69.45;20.65;;;;;;;;;;4912156;29;20131;-86
2023/12/09 07:41:28;;;;;;;78.20;22.27;;;;;;;;;;4900592;29;20052;-89
2023/12/09 07:43:54;;;;;;;69.28;19.55;;;;;;;;;;4889422;29;20048;-87
2023/12/09 07:46:21;;;;;;;70.75;23.88;;;;;;;;;;4908278;29;20075;-88
2023/12/09 07:48:48;;;;;;;68.60;20.25;;;;;;;;;;4896091;29;20059;-89
2023/12/09 07:51:14;;;;;;;68.30;18.88;;;;;;;;;;4895581;29;20052;-88
2023/12/09 07:53:40;;;;;;;67.72;20.65;;;;;;;;;;4898950;29;20047;-88
2023/12/09 07:56:07;;;;;;;56.03;17.15;;;;;;;;;;4898939;29;20572;-88
2023/12/09 07:58:33;;;;;;;69.93;19.73;;;;;;;;;;4909579;29;20147;-91
2023/12/09 08:01:02;;;;;;;83.45;21.20;;;;;;;;;;4911065;29;20132;-89
2023/12/09 08:03:31;;;;;;;68.82;19.90;;;;;;;;;;4883567;29;20716;-90
2023/12/09 08:05:57;;;;;;;68.50;20.67;;;;;;;;;;4895945;29;20091;-90
2023/12/09 08:08:23;;;;;;;64.20;18.48;;;;;;;;;;4899901;29;20056;-87
2023/12/09 08:10:49;;;;;;;88.05;21.85;;;;;;;;;;4894033;29;20054;-87
2023/12/09 08:13:15;;;;;;;56.85;17.30;;;;;;;;;;4899226;29;20048;-87
2023/12/09 08:15:42;;;;;;;64.18;16.75;;;;;;;;;;4904181;29;20346;-89
2023/12/09 08:18:08;;;;;;;81.38;18.70;;;;;;;;;;4900448;29;20051;-87
2023/12/09 08:20:37;;;;;;;72.20;17.25;;;;;;;;;;4898258;29;20044;-88
2023/12/09 08:23:07;;;;;;;55.80;18.08;;;;;;;;;;4892504;29;20058;-90
2023/12/09 08:25:33;;;;;;;52.58;14.23;;;;;;;;;;4898861;29;20050;-88
2023/12/09 08:27:59;;;;;;;55.28;16.08;;;;;;;;;;4889475;29;20710;-88
2023/12/09 08:30:27;;;;;;;50.30;13.48;;;;;;;;;;4885380;29;20048;-88
2023/12/09 08:32:53;;;;;;;52.10;13.95;;;;;;;;;;4878496;29;20130;-90
2023/12/09 08:35:20;;;;;;;51.10;13.57;;;;;;;;;;4883861;29;20390;-88
2023/12/09 08:37:46;;;;;;;44.33;11.38;;;;;;;;;;4875962;29;20055;-89
2023/12/09 08:40:12;;;;;;;55.60;12.68;;;;;;;;;;4890110;29;20062;-90
2023/12/09 08:42:43;;;;;;;48.55;12.32;;;;;;;;;;4889395;29;20055;-90
2023/12/09 08:45:18;;;;;;;47.28;10.80;;;;;;;;;;4888939;29;20052;-89
2023/12/09 08:47:44;;;;;;;52.95;12.20;;;;;;;;;;4893428;29;20044;-89
2023/12/09 08:50:11;;;;;;;30.40;8.27;;;;;;;;;;4887115;29;20498;-91
2023/12/09 08:52:37;;;;;;;50.05;8.93;;;;;;;;;;4900037;29;20048;-89
2023/12/09 08:55:04;;;;;;;44.85;9.48;;;;;;;;;;4885138;29;20047;-87
2023/12/09 08:57:30;;;;;;;54.50;12.27;;;;;;;;;;4885570;29;20052;-89
2023/12/09 08:59:56;;;;;;;30.98;8.43;;;;;;;;;;4894436;29;20077;-88
2023/12/09 09:02:24;;;;;;;42.10;9.82;;;;;;;;;;4902448;29;20092;-90
2023/12/09 09:04:51;;;;;;;38.95;8.40;;;;;;;;;;4896586;29;20052;-90
2023/12/09 09:07:17;;;;;;;32.00;7.53;;;;;;;;;;4902240;29;20048;-89
2023/12/09 09:09:43;;;;;;;43.58;8.52;;;;;;;;;;4892035;29;20120;-91
2023/12/09 09:12:10;;;;;;;41.70;8.50;;;;;;;;;;4900313;29;20158;-92
2023/12/09 09:14:37;;;;;;;37.70;8.50;;;;;;;;;;4922852;29;20052;-92
2023/12/09 09:17:03;;;;;;;32.95;7.35;;;;;;;;;;4892133;29;20056;-87
2023/12/09 09:19:30;;;;;;;42.67;8.40;;;;;;;;;;4899607;29;20056;-89
2023/12/09 09:21:56;;;;;;;29.65;7.63;;;;;;;;;;4887164;29;20059;-86
2023/12/09 09:24:22;;;;;;;40.35;8.77;;;;;;;;;;4890270;29;20056;-89
2023/12/09 09:26:48;;;;;;;39.47;7.97;;;;;;;;;;4887635;29;20070;-93
2023/12/09 09:29:15;;;;;;;52.60;9.23;;;;;;;;;;4883431;29;20055;-91
2023/12/09 09:31:41;;;;;;;42.80;7.35;;;;;;;;;;4888096;29;20059;-91
2023/12/09 09:34:07;;;;;;;42.55;9.32;;;;;;;;;;4883899;29;20506;-87
2023/12/09 09:36:34;;;;;;;30.23;6.97;;;;;;;;;;4895149;29;20628;-89
2023/12/09 09:39:00;;;;;;;36.25;7.35;;;;;;;;;;4887835;29;20051;-89
2023/12/09 09:41:40;;;;;;;40.05;7.65;;;;;;;;;;4894367;29;20701;-88
2023/12/09 09:44:11;;;;;;;29.70;6.22;;;;;;;;;;4895080;29;20059;-91
2023/12/09 09:46:39;;;;;;;30.85;7.90;;;;;;;;;;4889515;29;20055;-88
2023/12/09 09:49:05;;;;;;;30.83;6.75;;;;;;;;;;4896457;29;20047;-90
2023/12/09 09:51:32;;;;;;;21.85;5.78;;;;;;;;;;4890790;29;20044;-90
2023/12/09 09:54:17;;;;;;;27.98;5.45;;;;;;;;;;4905414;29;20048;-89
2023/12/09 09:56:43;;;;;;;32.92;7.18;;;7.10;99.90;;;;;;4918765;29;20056;-89
2023/12/09 09:59:12;;;;;;;34.78;7.68;;;;;;;;;;4891947;29;20056;-87
2023/12/09 10:01:42;;;;;;;28.23;5.05;;;;;;;;;;4905884;29;20501;-92
2023/12/09 10:04:09;;;;;;;24.55;4.88;;;;;;;;;;4902098;29;20055;-90
2023/12/09 10:06:40;;;;;;;23.38;5.57;;;;;;;;;;4882695;29;20232;-89
2023/12/09 10:09:07;;;;;;;24.48;4.68;;;;;;;;;;4880272;29;20040;-87
2023/12/09 10:11:36;;;;;;;31.23;7.22;;;;;;;;;;4889822;29;20052;-89
2023/12/09 10:14:02;;;;;;;23.00;4.25;;;;;;;;;;4884817;29;20119;-88
2023/12/09 10:16:28;;;;;;;17.50;4.20;;;;;;;;;;4883548;29;20056;-88
2023/12/09 10:18:56;;;;;;;26.23;4.95;;;;;;;;;;4883239;29;20044;-86
2023/12/09 10:21:22;;;;;;;25.45;3.88;;;;;;;;;;4891615;29;20517;-90
2023/12/09 10:23:48;;;;;;;13.90;3.80;;;;;;;;;;4894183;29;20112;-90
2023/12/09 10:26:15;;;;;;;28.17;4.93;;;;;;;;;;4902238;29;20513;-89
2023/12/09 10:28:41;;;;;;;27.40;4.82;;;;;;;;;;4891406;29;20058;-86
2023/12/09 10:31:08;;;;;;;24.42;4.47;;;;;;;;;;4910168;29;20527;-89
2023/12/09 10:33:34;;;;;;;32.80;5.15;;;;;;;;;;4893536;29;20059;-89
2023/12/09 10:36:01;;;;;;;19.48;5.70;;;;;;;;;;4879289;29;20055;-88
2023/12/09 10:38:28;;;;;;;29.73;6.15;;;;;;;;;;4880000;29;20048;-89
2023/12/09 10:40:55;;;;;;;29.23;4.60;;;;;;;;;;4917241;29;20044;-87
2023/12/09 10:43:21;;;;;;;24.02;4.55;;;;;;;;;;4898333;29;20056;-89
2023/12/09 10:45:48;;;;;;;21.88;4.68;;;;;;;;;;4882324;29;20052;-91
2023/12/09 10:48:17;;;;;;;22.45;4.68;;;;;;;;;;4916496;29;20048;-93
2023/12/09 10:50:46;;;;;;;34.65;6.35;;;;;;;;;;4896875;29;20090;-92
2023/12/09 10:53:12;;;;;;;20.20;3.92;;;;;;;;;;4907515;29;20584;-90
2023/12/09 10:55:39;;;;;;;30.92;5.50;;;;;;;;;;4895129;29;20048;-88
2023/12/09 10:58:06;;;;;;;25.23;6.50;;;;;;;;;;4891920;29;20128;-88
2023/12/09 11:00:39;;;;;;;15.68;3.70;;;;;;;;;;4907238;29;20856;-92
2023/12/09 11:03:07;;;;;;;21.77;4.53;;;;;;;;;;4900170;29;20092;-90
2023/12/09 11:05:36;;;;;;;22.65;5.68;;;;;;;;;;4899793;29;20118;-92
2023/12/09 11:08:02;;;;;;;23.40;5.53;;;;;;;;;;4904111;29;20055;-91
2023/12/09 11:10:34;;;;;;;20.27;3.92;;;;;;;;;;4896929;29;20344;-94
2023/12/09 11:13:01;;;;;;;21.23;4.55;;;;;;;;;;4904003;29;20062;-88
2023/12/09 11:15:32;;;;;;;19.23;4.65;;;;;;;;;;4899897;29;20044;-91
2023/12/09 11:18:08;;;;;;;20.87;4.67;;;;;;;;;;4898742;29;20055;-92
2023/12/09 11:20:39;;;;;;;17.30;4.40;;;;;;;;;;4893665;29;20059;-90
2023/12/09 11:23:08;;;;;;;22.50;5.93;;;;;;;;;;4891275;29;20055;-91
2023/12/09 11:25:43;;;;;;;23.55;4.18;;;;;;;;;;4883925;29;20052;-94
2023/12/09 11:28:25;;;;;;;21.23;5.53;;;;;;;;;;4900927;29;20082;-93
2023/12/09 11:30:56;;;;;;;27.52;6.53;;;;;;;;;;4897153;29;20119;-92
2023/12/09 11:33:23;;;;;;;16.83;4.10;;;;;;;;;;4900894;29;20056;-88
2023/12/09 11:35:52;;;;;;;17.95;3.97;;;;;;;;;;4891070;29;20055;-92
2023/12/09 11:38:22;;;;;;;18.73;4.07;;;;;;;;;;4902818;29;20139;-86
2023/12/09 11:40:49;;;;;;;16.83;3.28;;;;;;;;;;4895332;29;20056;-87
2023/12/09 11:43:16;;;;;;;19.90;3.63;;;;;;;;;;4904465;29;20505;-93
2023/12/09 11:45:45;;;;;;;22.60;3.95;;;;;;;;;;4893380;29;20516;-94
2023/12/09 11:48:12;;;;;;;20.25;3.50;;;;;;;;;;4891045;29;20060;-91
2023/12/09 11:50:39;;;;;;;20.38;3.88;;;7.20;99.90;;;;;;4887905;29;20056;-93
2023/12/09 11:53:06;;;;;;;15.85;4.03;;;;;;;;;;4898425;29;20044;-89
2023/12/09 11:55:32;;;;;;;18.27;3.85;;;;;;;;;;4899680;29;20124;-90
2023/12/09 11:57:58;;;;;;;18.60;3.95;;;;;;;;;;4926215;29;20060;-90
2023/12/09 12:00:25;;;;;;;16.25;4.15;;;;;;;;;;4908118;29;20059;-95
2023/12/09 12:02:54;;;;;;;19.58;3.20;;;;;;;;;;4895012;29;20456;-95
2023/12/09 12:05:21;;;;;;;12.43;3.45;;;;;;;;;;4893854;29;20056;-90
2023/12/09 12:07:50;;;;;;;19.40;3.55;;;;;;;;;;4891672;29;20055;-91
2023/12/09 12:10:16;;;;;;;19.73;4.15;;;;;;;;;;4888816;29;20119;-89
2023/12/09 12:12:43;;;;;;;21.92;3.55;;;;;;;;;;4892011;29;20107;-92
2023/12/09 12:15:09;;;;;;;16.88;4.72;;;;;;;;;;4910821;29;20040;-94
2023/12/09 12:17:46;;;;;;;10.93;3.25;;;;;;;;;;4892635;29;20063;-90
2023/12/09 12:20:13;;;;;;;13.82;4.03;;;;;;;;;;4887992;29;20052;-91
2023/12/09 12:22:42;;;;;;;15.65;4.20;;;;;;;;;;4903862;29;20052;-93
2023/12/09 12:25:09;;;;;;;16.02;3.05;;;;;;;;;;4904719;29;20128;-92
2023/12/09 12:27:39;;;;;;;12.57;2.60;;;;;;;;;;4896739;29;20628;-93
2023/12/09 12:30:09;;;;;;;14.57;3.75;;;;;;;;;;4892847;29;20096;-91
2023/12/09 12:32:38;;;;;;;17.88;3.35;;;;;;;;;;4897529;29;20406;-90
2023/12/09 12:35:05;;;;;;;10.52;3.28;;;;;;;;;;4918773;29;20131;-91
2023/12/09 12:37:34;;;;;;;19.70;4.60;;;;;;;;;;4912935;29;20514;-92
2023/12/09 12:40:04;;;;;;;17.75;3.55;;;;;;;;;;4911083;29;20387;-90
2023/12/09 12:42:33;;;;;;;13.52;2.80;;;;;;;;;;4903893;29;20115;-91
2023/12/09 12:45:02;;;;;;;17.67;4.05;;;;;;;;;;4888271;29;20052;-92
2023/12/09 12:47:29;;;;;;;18.33;3.15;;;;;;;;;;4894580;29;20048;-92
2023/12/09 12:49:55;;;;;;;15.57;3.30;;;;;;;;;;4892599;29;20048;-90
2023/12/09 12:52:21;;;;;;;16.48;3.05;;;;;;;;;;4895605;29;20087;-89
2023/12/09 12:54:48;;;;;;;16.13;5.20;;;;;;;;;;4892094;29;20044;-89
2023/12/09 12:57:14;;;;;;;19.20;2.80;;;;;;;;;;4886543;29;20047;-89
2023/12/09 12:59:40;;;;;;;16.55;3.03;;;;;;;;;;4900982;29;20051;-87
2023/12/09 13:02:06;;;;;;;22.25;5.00;;;;;;;;;;4905101;29;20055;-89
2023/12/09 13:04:32;;;;;;;13.85;3.30;;;;;;;;;;4904798;29;20058;-89
2023/12/09 13:07:03;;;;;;;17.10;3.97;;;;;;;;;;4910162;29;20076;-92
2023/12/09 13:09:29;;;;;;;11.38;3.22;;;;;;;;;;4892050;29;20135;-88
2023/12/09 13:11:55;;;;;;;16.88;2.97;;;;;;;;;;4899618;29;20541;-90
2023/12/09 13:14:22;;;;;;;19.05;3.50;;;;;;;;;;4893410;29;20532;-90
2023/12/09 13:16:48;;;;;;;14.10;2.95;;;;;;;;;;4899699;29;20262;-89
2023/12/09 13:19:16;;;;;;;15.80;3.70;;;;;;;;;;4898360;29;20063;-89
2023/12/09 13:21:43;;;;;;;15.65;3.42;;;;;;;;;;4885918;29;20051;-88
2023/12/09 13:24:10;;;;;;;16.83;3.92;;;;;;;;;;4892062;29;20175;-88
2023/12/09 13:26:37;;;;;;;18.05;3.65;;;;;;;;;;4897698;29;20063;-90
2023/12/09 13:29:04;;;;;;;21.98;3.45;;;;;;;;;;4898024;29;20051;-89
2023/12/09 13:31:33;;;;;;;19.08;4.35;;;;;;;;;;4904662;29;20048;-92
2023/12/09 13:33:59;;;;;;;11.45;3.20;;;;;;;;;;4901307;29;20051;-92
2023/12/09 13:36:25;;;;;;;18.95;3.25;;;;;;;;;;4885019;29;20090;-91
2023/12/09 13:38:54;;;;;;;17.40;4.28;;;;;;;;;;4898670;29;20108;-95
2023/12/09 13:41:21;;;;;;;13.60;3.95;;;;;;;;;;4885050;29;20059;-90
2023/12/09 13:43:51;;;;;;;16.17;3.40;;;;;;;;;;4890406;29;20062;-93
2023/12/09 13:46:17;;;;;;;13.13;3.38;;;;;;;;;;4897207;29;20112;-90
2023/12/09 13:48:47;;;;;;;12.93;4.13;;;;;;;;;;4895977;29;20047;-94
2023/12/09 13:51:13;;;;;;;18.65;5.45;;;;;;;;;;4894961;29;20134;-88
2023/12/09 13:53:39;;;;;;;14.40;3.95;;;;;;;;;;4903535;29;20079;-90
2023/12/09 13:56:05;;;;;;;11.82;3.28;;;;;;;;;;4913302;29;20051;-89
2023/12/09 13:58:32;;;;;;;16.95;3.58;;;;;;;;;;4892617;29;20051;-90
2023/12/09 14:01:01;;;;;;;18.70;3.97;;;;;;;;;;4899784;29;20052;-92
2023/12/09 14:03:28;;;;;;;17.67;4.85;;;;;;;;;;4895249;29;20506;-92
2023/12/09 14:05:54;;;;;;;15.05;4.75;;;;;;;;;;4903441;29;20040;-90
2023/12/09 14:08:20;;;;;;;20.67;4.70;;;;;;;;;;4907051;29;20040;-90
2023/12/09 14:10:47;;;;;;;21.10;4.93;;;;;;;;;;4911478;29;20239;-92
2023/12/09 14:13:18;;;;;;;20.20;4.00;;;;;;;;;;4901827;29;20058;-93
2023/12/09 14:15:44;;;;;;;20.52;4.40;;;;;;;;;;4904186;29;20056;-91
2023/12/09 14:18:18;;;;;;;28.27;5.47;;;;;;;;;;4898481;29;20068;-90